sensor_id;sensor_type;location;lat;lon;timestamp;pressure;altitude;pressure_sealevel;temperature;humidity
26487;BME280;14425;56.136;40.360;2022-08-01T00:01:36;99872.81;;;14.62;100.00
26487;BME280;14425;56.136;40.360;2022-08-01T00:04:01;99865.16;;;14.68;100.00
26487;BME280;14425;56.136;40.360;2022-08-01T00:06:27;99867.19;;;14.82;100.00
26487;BME280;14425;56.136;40.360;2022-08-01T00:08:53;99866.53;;;14.54;100.00
26487;BME280;14425;56.136;40.360;2022-08-01T00:11:18;99865.56;;;14.49;100.00
26487;BME280;14425;56.136;40.360;2022-08-01T00:13:44;99869.03;;;14.49;100.00
26487;BME280;14425;56.136;40.360;2022-08-01T00:16:09;99868.47;;;14.61;100.00
26487;BME280;14425;56.136;40.360;2022-08-01T00:18:35;99866.72;;;14.60;100.00
26487;BME280;14425;56.136;40.360;2022-08-01T00:21:01;99862.72;;;14.38;100.00
26487;BME280;14425;56.136;40.360;2022-08-01T00:23:27;99866.47;;;14.51;100.00
26487;BME280;14425;56.136;40.360;2022-08-01T00:25:52;99872.72;;;14.59;100.00
26487;BME280;14425;56.136;40.360;2022-08-01T00:28:18;99871.91;;;14.60;100.00
26487;BME280;14425;56.136;40.360;2022-08-01T00:30:46;99866.38;;;14.46;100.00
26487;BME280;14425;56.136;40.360;2022-08-01T00:33:12;99875.25;;;14.56;100.00
26487;BME280;14425;56.136;40.360;2022-08-01T00:35:38;99875.03;;;14.47;100.00
26487;BME280;14425;56.136;40.360;2022-08-01T00:38:03;99875.25;;;14.56;100.00
26487;BME280;14425;56.136;40.360;2022-08-01T00:40:29;99871.75;;;14.55;100.00
26487;BME280;14425;56.136;40.360;2022-08-01T00:42:54;99872.66;;;14.57;100.00
26487;BME280;14425;56.136;40.360;2022-08-01T00:45:26;99863.81;;;14.48;100.00
26487;BME280;14425;56.136;40.360;2022-08-01T00:47:51;99869.25;;;14.58;100.00
26487;BME280;14425;56.136;40.360;2022-08-01T00:50:17;99868.00;;;14.41;100.00
26487;BME280;14425;56.136;40.360;2022-08-01T00:52:42;99874.06;;;14.41;100.00
26487;BME280;14425;56.136;40.360;2022-08-01T00:55:09;99875.00;;;14.45;100.00
26487;BME280;14425;56.136;40.360;2022-08-01T00:57:36;99875.06;;;14.48;100.00
26487;BME280;14425;56.136;40.360;2022-08-01T01:00:03;99873.56;;;14.58;100.00
26487;BME280;14425;56.136;40.360;2022-08-01T01:02:29;99870.28;;;14.65;100.00
26487;BME280;14425;56.136;40.360;2022-08-01T01:04:55;99864.69;;;14.48;100.00
26487;BME280;14425;56.136;40.360;2022-08-01T01:10:09;99867.84;;;14.71;100.00
26487;BME280;14425;56.136;40.360;2022-08-01T01:13:23;99870.91;;;14.55;100.00
26487;BME280;14425;56.136;40.360;2022-08-01T01:15:30;99862.13;;;14.50;100.00
26487;BME280;14425;56.136;40.360;2022-08-01T01:18:35;99867.63;;;14.62;100.00
26487;BME280;14425;56.136;40.360;2022-08-01T01:20:58;99862.78;;;14.77;100.00
26487;BME280;14425;56.136;40.360;2022-08-01T01:23:34;99861.81;;;14.74;100.00
26487;BME280;14425;56.136;40.360;2022-08-01T01:31:17;99862.34;;;14.59;100.00
26487;BME280;14425;56.136;40.360;2022-08-01T01:33:45;99858.13;;;14.63;100.00
26487;BME280;14425;56.136;40.360;2022-08-01T01:36:12;99859.75;;;14.59;100.00
26487;BME280;14425;56.136;40.360;2022-08-01T01:38:42;99855.31;;;14.55;100.00
26487;BME280;14425;56.136;40.360;2022-08-01T01:41:12;99865.41;;;14.42;100.00
26487;BME280;14425;56.136;40.360;2022-08-01T01:43:39;99863.78;;;14.46;100.00
26487;BME280;14425;56.136;40.360;2022-08-01T01:46:05;99860.22;;;14.42;100.00
26487;BME280;14425;56.136;40.360;2022-08-01T01:48:33;99856.91;;;14.48;100.00
26487;BME280;14425;56.136;40.360;2022-08-01T01:50:59;99854.91;;;14.36;100.00
26487;BME280;14425;56.136;40.360;2022-08-01T01:53:25;99855.47;;;14.23;100.00
26487;BME280;14425;56.136;40.360;2022-08-01T01:55:55;99855.03;;;14.06;100.00
26487;BME280;14425;56.136;40.360;2022-08-01T01:58:23;99860.78;;;13.94;100.00
26487;BME280;14425;56.136;40.360;2022-08-01T02:00:49;99855.31;;;14.17;100.00
26487;BME280;14425;56.136;40.360;2022-08-01T02:03:16;99857.66;;;14.08;100.00
26487;BME280;14425;56.136;40.360;2022-08-01T02:05:43;99855.50;;;14.25;100.00
26487;BME280;14425;56.136;40.360;2022-08-01T02:08:14;99852.56;;;14.11;100.00
26487;BME280;14425;56.136;40.360;2022-08-01T02:10:39;99855.81;;;14.02;100.00
26487;BME280;14425;56.136;40.360;2022-08-01T02:13:06;99862.66;;;13.65;100.00
26487;BME280;14425;56.136;40.360;2022-08-01T02:15:33;99855.75;;;13.65;100.00
26487;BME280;14425;56.136;40.360;2022-08-01T02:18:00;99862.84;;;14.08;100.00
26487;BME280;14425;56.136;40.360;2022-08-01T02:20:28;99854.88;;;14.35;100.00
26487;BME280;14425;56.136;40.360;2022-08-01T02:23:03;99860.13;;;14.01;100.00
26487;BME280;14425;56.136;40.360;2022-08-01T02:25:31;99859.19;;;13.99;100.00
26487;BME280;14425;56.136;40.360;2022-08-01T02:28:01;99863.81;;;14.11;100.00
26487;BME280;14425;56.136;40.360;2022-08-01T02:30:33;99865.72;;;14.18;100.00
26487;BME280;14425;56.136;40.360;2022-08-01T02:33:19;99865.53;;;14.11;100.00
26487;BME280;14425;56.136;40.360;2022-08-01T02:35:56;99864.31;;;14.31;100.00
26487;BME280;14425;56.136;40.360;2022-08-01T02:38:23;99864.00;;;14.57;100.00
26487;BME280;14425;56.136;40.360;2022-08-01T02:40:50;99865.00;;;14.60;100.00
26487;BME280;14425;56.136;40.360;2022-08-01T02:43:18;99861.00;;;14.75;100.00
26487;BME280;14425;56.136;40.360;2022-08-01T02:45:47;99860.16;;;15.19;100.00
26487;BME280;14425;56.136;40.360;2022-08-01T02:48:15;99855.91;;;15.21;98.84
26487;BME280;14425;56.136;40.360;2022-08-01T02:50:42;99868.47;;;15.02;100.00
26487;BME280;14425;56.136;40.360;2022-08-01T02:53:09;99865.41;;;15.22;99.49
26487;BME280;14425;56.136;40.360;2022-08-01T02:55:36;99870.97;;;14.96;100.00
26487;BME280;14425;56.136;40.360;2022-08-01T02:58:04;99876.00;;;14.88;100.00
26487;BME280;14425;56.136;40.360;2022-08-01T03:00:29;99873.31;;;14.85;100.00
26487;BME280;14425;56.136;40.360;2022-08-01T03:02:56;99876.06;;;14.91;100.00
26487;BME280;14425;56.136;40.360;2022-08-01T03:05:23;99876.06;;;15.34;100.00
26487;BME280;14425;56.136;40.360;2022-08-01T03:07:50;99870.88;;;15.36;97.42
26487;BME280;14425;56.136;40.360;2022-08-01T03:10:18;99874.66;;;15.51;98.28
26487;BME280;14425;56.136;40.360;2022-08-01T03:12:44;99886.69;;;15.46;97.27
26487;BME280;14425;56.136;40.360;2022-08-01T03:15:10;99874.91;;;15.65;96.56
26487;BME280;14425;56.136;40.360;2022-08-01T03:17:38;99875.50;;;15.50;97.69
26487;BME280;14425;56.136;40.360;2022-08-01T03:20:06;99867.13;;;15.65;96.77
26487;BME280;14425;56.136;40.360;2022-08-01T03:22:33;99874.47;;;15.86;94.71
26487;BME280;14425;56.136;40.360;2022-08-01T03:25:00;99879.56;;;15.82;94.78
26487;BME280;14425;56.136;40.360;2022-08-01T03:27:29;99877.63;;;15.71;95.22
26487;BME280;14425;56.136;40.360;2022-08-01T03:29:55;99881.72;;;16.04;93.27
26487;BME280;14425;56.136;40.360;2022-08-01T03:32:22;99875.22;;;15.79;94.29
26487;BME280;14425;56.136;40.360;2022-08-01T03:34:48;99876.16;;;15.84;93.46
26487;BME280;14425;56.136;40.360;2022-08-01T03:37:21;99876.13;;;15.83;93.86
26487;BME280;14425;56.136;40.360;2022-08-01T03:39:52;99880.28;;;16.22;91.20
26487;BME280;14425;56.136;40.360;2022-08-01T03:42:20;99880.25;;;16.20;91.12
26487;BME280;14425;56.136;40.360;2022-08-01T03:44:54;99870.28;;;16.50;88.43
26487;BME280;14425;56.136;40.360;2022-08-01T03:47:24;99879.97;;;16.60;85.95
26487;BME280;14425;56.136;40.360;2022-08-01T03:49:51;99875.59;;;16.57;85.79
26487;BME280;14425;56.136;40.360;2022-08-01T03:52:17;99872.28;;;16.68;83.33
26487;BME280;14425;56.136;40.360;2022-08-01T03:54:45;99865.03;;;17.08;78.26
26487;BME280;14425;56.136;40.360;2022-08-01T03:57:11;99871.88;;;17.01;77.72
26487;BME280;14425;56.136;40.360;2022-08-01T03:59:38;99865.19;;;17.20;76.30
26487;BME280;14425;56.136;40.360;2022-08-01T04:02:05;99872.22;;;17.27;74.20
26487;BME280;14425;56.136;40.360;2022-08-01T04:04:31;99867.03;;;17.30;74.35
26487;BME280;14425;56.136;40.360;2022-08-01T04:06:57;99866.25;;;17.39;73.72
26487;BME280;14425;56.136;40.360;2022-08-01T04:09:29;99856.94;;;17.61;71.80
26487;BME280;14425;56.136;40.360;2022-08-01T04:11:55;99865.66;;;17.63;71.96
26487;BME280;14425;56.136;40.360;2022-08-01T04:14:20;99866.63;;;17.76;70.12
26487;BME280;14425;56.136;40.360;2022-08-01T04:16:46;99870.16;;;17.78;69.54
26487;BME280;14425;56.136;40.360;2022-08-01T04:19:12;99864.41;;;18.12;68.17
26487;BME280;14425;56.136;40.360;2022-08-01T04:21:37;99868.72;;;18.06;66.52
26487;BME280;14425;56.136;40.360;2022-08-01T04:24:05;99874.78;;;18.05;66.91
26487;BME280;14425;56.136;40.360;2022-08-01T04:26:32;99863.47;;;18.05;64.37
26487;BME280;14425;56.136;40.360;2022-08-01T04:29:00;99876.66;;;18.22;64.54
26487;BME280;14425;56.136;40.360;2022-08-01T04:31:26;99872.31;;;18.24;64.59
26487;BME280;14425;56.136;40.360;2022-08-01T04:33:53;99871.63;;;18.46;63.07
26487;BME280;14425;56.136;40.360;2022-08-01T04:36:21;99875.00;;;18.32;64.23
26487;BME280;14425;56.136;40.360;2022-08-01T04:38:48;99873.25;;;18.32;63.41
26487;BME280;14425;56.136;40.360;2022-08-01T04:41:15;99864.66;;;18.49;65.30
26487;BME280;14425;56.136;40.360;2022-08-01T04:43:42;99865.59;;;18.58;63.37
26487;BME280;14425;56.136;40.360;2022-08-01T04:46:08;99868.16;;;18.52;62.90
26487;BME280;14425;56.136;40.360;2022-08-01T04:48:36;99869.94;;;18.55;62.66
26487;BME280;14425;56.136;40.360;2022-08-01T04:51:02;99867.41;;;18.69;62.85
26487;BME280;14425;56.136;40.360;2022-08-01T04:53:28;99872.69;;;18.82;61.95
26487;BME280;14425;56.136;40.360;2022-08-01T04:55:54;99873.56;;;18.80;63.76
26487;BME280;14425;56.136;40.360;2022-08-01T04:58:20;99869.28;;;18.87;62.66
26487;BME280;14425;56.136;40.360;2022-08-01T05:00:46;99875.47;;;19.01;62.51
26487;BME280;14425;56.136;40.360;2022-08-01T05:03:11;99870.31;;;19.24;62.17
26487;BME280;14425;56.136;40.360;2022-08-01T05:05:37;99874.69;;;19.31;61.97
26487;BME280;14425;56.136;40.360;2022-08-01T05:08:03;99870.38;;;19.44;61.45
26487;BME280;14425;56.136;40.360;2022-08-01T05:10:28;99884.34;;;19.54;59.68
26487;BME280;14425;56.136;40.360;2022-08-01T05:12:54;99880.88;;;19.70;60.58
26487;BME280;14425;56.136;40.360;2022-08-01T05:15:19;99884.44;;;19.83;59.73
26487;BME280;14425;56.136;40.360;2022-08-01T05:17:46;99882.69;;;19.85;58.99
26487;BME280;14425;56.136;40.360;2022-08-01T05:20:12;99882.72;;;19.93;59.67
26487;BME280;14425;56.136;40.360;2022-08-01T05:22:37;99889.69;;;19.89;61.18
26487;BME280;14425;56.136;40.360;2022-08-01T05:25:03;99878.34;;;19.84;58.96
26487;BME280;14425;56.136;40.360;2022-08-01T05:27:30;99882.72;;;20.07;59.03
26487;BME280;14425;56.136;40.360;2022-08-01T05:29:56;99880.09;;;20.15;59.21
26487;BME280;14425;56.136;40.360;2022-08-01T05:32:21;99869.63;;;20.10;59.27
26487;BME280;14425;56.136;40.360;2022-08-01T05:34:48;99873.97;;;20.20;58.82
26487;BME280;14425;56.136;40.360;2022-08-01T05:37:13;99872.22;;;20.48;58.31
26487;BME280;14425;56.136;40.360;2022-08-01T05:39:39;99874.84;;;20.33;57.75
26487;BME280;14425;56.136;40.360;2022-08-01T05:42:05;99873.97;;;20.45;58.00
26487;BME280;14425;56.136;40.360;2022-08-01T05:44:31;99872.25;;;20.64;56.08
26487;BME280;14425;56.136;40.360;2022-08-01T05:46:57;99869.63;;;20.67;55.17
26487;BME280;14425;56.136;40.360;2022-08-01T05:49:23;99866.94;;;20.84;54.76
26487;BME280;14425;56.136;40.360;2022-08-01T05:51:48;99862.56;;;20.89;53.48
26487;BME280;14425;56.136;40.360;2022-08-01T05:54:14;99866.06;;;20.83;52.47
26487;BME280;14425;56.136;40.360;2022-08-01T05:56:39;99866.81;;;21.15;52.80
26487;BME280;14425;56.136;40.360;2022-08-01T05:59:05;99869.41;;;21.21;52.48
26487;BME280;14425;56.136;40.360;2022-08-01T06:01:31;99865.78;;;21.53;52.37
26487;BME280;14425;56.136;40.360;2022-08-01T06:03:56;99870.91;;;21.73;51.49
26487;BME280;14425;56.136;40.360;2022-08-01T06:06:22;99863.88;;;21.80;51.14
26487;BME280;14425;56.136;40.360;2022-08-01T06:08:47;99858.38;;;22.12;50.65
26487;BME280;14425;56.136;40.360;2022-08-01T06:11:13;99859.09;;;22.32;48.12
26487;BME280;14425;56.136;40.360;2022-08-01T06:13:39;99860.06;;;22.19;49.54
26487;BME280;14425;56.136;40.360;2022-08-01T06:16:04;99863.47;;;22.35;48.43
26487;BME280;14425;56.136;40.360;2022-08-01T06:18:30;99862.59;;;22.35;48.21
26487;BME280;14425;56.136;40.360;2022-08-01T06:20:55;99859.53;;;22.78;47.52
26487;BME280;14425;56.136;40.360;2022-08-01T06:23:21;99869.72;;;23.07;46.51
26487;BME280;14425;56.136;40.360;2022-08-01T06:25:47;99860.72;;;23.27;47.75
26487;BME280;14425;56.136;40.360;2022-08-01T06:28:12;99863.13;;;23.42;46.33
26487;BME280;14425;56.136;40.360;2022-08-01T06:30:38;99858.81;;;23.38;45.42
26487;BME280;14425;56.136;40.360;2022-08-01T06:33:04;99857.09;;;23.35;45.06
26487;BME280;14425;56.136;40.360;2022-08-01T06:35:30;99858.38;;;23.67;45.23
26487;BME280;14425;56.136;40.360;2022-08-01T06:37:56;99859.19;;;23.04;44.93
26487;BME280;14425;56.136;40.360;2022-08-01T06:40:21;99863.63;;;23.00;44.42
26487;BME280;14425;56.136;40.360;2022-08-01T06:42:47;99854.56;;;23.28;43.45
26487;BME280;14425;56.136;40.360;2022-08-01T06:45:13;99854.59;;;23.87;44.81
26487;BME280;14425;56.136;40.360;2022-08-01T06:47:39;99863.06;;;24.07;44.77
26487;BME280;14425;56.136;40.360;2022-08-01T06:50:05;99857.84;;;24.06;44.42
26487;BME280;14425;56.136;40.360;2022-08-01T06:52:31;99859.50;;;24.61;43.60
26487;BME280;14425;56.136;40.360;2022-08-01T06:54:57;99866.56;;;24.61;42.35
26487;BME280;14425;56.136;40.360;2022-08-01T06:57:23;99864.84;;;24.58;43.46
26487;BME280;14425;56.136;40.360;2022-08-01T06:59:49;99867.19;;;24.74;42.29
26487;BME280;14425;56.136;40.360;2022-08-01T07:02:14;99869.69;;;24.31;41.24
26487;BME280;14425;56.136;40.360;2022-08-01T07:04:40;99863.91;;;24.11;41.38
26487;BME280;14425;56.136;40.360;2022-08-01T07:07:06;99869.38;;;23.95;41.45
26487;BME280;14425;56.136;40.360;2022-08-01T07:09:31;99864.03;;;24.53;42.04
26487;BME280;14425;56.136;40.360;2022-08-01T07:11:57;99860.09;;;24.77;42.10
26487;BME280;14425;56.136;40.360;2022-08-01T07:14:22;99869.50;;;23.89;42.75
26487;BME280;14425;56.136;40.360;2022-08-01T07:16:49;99863.09;;;25.04;41.94
26487;BME280;14425;56.136;40.360;2022-08-01T07:19:18;99857.22;;;25.32;38.71
26487;BME280;14425;56.136;40.360;2022-08-01T07:21:44;99867.31;;;26.28;37.89
26487;BME280;14425;56.136;40.360;2022-08-01T07:24:10;99863.22;;;26.49;37.28
26487;BME280;14425;56.136;40.360;2022-08-01T07:26:36;99867.47;;;26.22;37.01
26487;BME280;14425;56.136;40.360;2022-08-01T07:29:02;99863.88;;;26.25;37.53
26487;BME280;14425;56.136;40.360;2022-08-01T07:31:28;99868.25;;;26.60;38.26
26487;BME280;14425;56.136;40.360;2022-08-01T07:33:53;99861.78;;;26.72;36.05
26487;BME280;14425;56.136;40.360;2022-08-01T07:36:19;99865.47;;;25.96;36.75
26487;BME280;14425;56.136;40.360;2022-08-01T07:38:46;99864.50;;;26.69;36.52
26487;BME280;14425;56.136;40.360;2022-08-01T07:41:12;99864.63;;;27.27;35.00
26487;BME280;14425;56.136;40.360;2022-08-01T07:43:37;99859.50;;;27.21;36.68
26487;BME280;14425;56.136;40.360;2022-08-01T07:46:04;99858.06;;;27.69;36.12
26487;BME280;14425;56.136;40.360;2022-08-01T07:48:29;99851.88;;;27.98;34.87
26487;BME280;14425;56.136;40.360;2022-08-01T07:50:55;99854.88;;;27.57;35.54
26487;BME280;14425;56.136;40.360;2022-08-01T07:53:21;99852.34;;;27.54;35.00
26487;BME280;14425;56.136;40.360;2022-08-01T07:55:47;99851.91;;;27.68;33.96
26487;BME280;14425;56.136;40.360;2022-08-01T07:58:13;99852.81;;;27.95;33.19
26487;BME280;14425;56.136;40.360;2022-08-01T08:00:38;99849.72;;;28.09;33.32
26487;BME280;14425;56.136;40.360;2022-08-01T08:03:04;99850.72;;;28.32;33.68
26487;BME280;14425;56.136;40.360;2022-08-01T08:05:30;99850.88;;;28.27;34.15
26487;BME280;14425;56.136;40.360;2022-08-01T08:07:59;99856.69;;;28.12;33.97
26487;BME280;14425;56.136;40.360;2022-08-01T08:10:24;99848.00;;;28.60;33.13
26487;BME280;14425;56.136;40.360;2022-08-01T08:12:50;99841.66;;;28.64;32.24
26487;BME280;14425;56.136;40.360;2022-08-01T08:15:16;99843.69;;;28.81;32.26
26487;BME280;14425;56.136;40.360;2022-08-01T08:17:41;99844.56;;;28.82;33.67
26487;BME280;14425;56.136;40.360;2022-08-01T08:20:10;99843.16;;;28.71;33.78
26487;BME280;14425;56.136;40.360;2022-08-01T08:22:41;99846.63;;;28.73;32.45
26487;BME280;14425;56.136;40.360;2022-08-01T08:25:26;99845.63;;;27.42;33.63
26487;BME280;14425;56.136;40.360;2022-08-01T08:28:09;99847.41;;;28.25;32.54
26487;BME280;14425;56.136;40.360;2022-08-01T08:30:44;99840.13;;;28.57;33.01
26487;BME280;14425;56.136;40.360;2022-08-01T08:33:10;99840.28;;;27.72;33.36
26487;BME280;14425;56.136;40.360;2022-08-01T08:35:35;99843.13;;;27.68;32.90
26487;BME280;14425;56.136;40.360;2022-08-01T08:38:03;99835.75;;;28.81;31.22
26487;BME280;14425;56.136;40.360;2022-08-01T08:40:30;99827.72;;;28.59;30.34
26487;BME280;14425;56.136;40.360;2022-08-01T08:42:56;99830.53;;;28.78;30.91
26487;BME280;14425;56.136;40.360;2022-08-01T08:45:23;99834.44;;;29.84;29.60
26487;BME280;14425;56.136;40.360;2022-08-01T08:47:49;99832.75;;;30.04;31.34
26487;BME280;14425;56.136;40.360;2022-08-01T08:50:15;99833.19;;;30.56;29.74
26487;BME280;14425;56.136;40.360;2022-08-01T08:52:41;99830.00;;;29.17;30.10
26487;BME280;14425;56.136;40.360;2022-08-01T08:55:08;99828.81;;;30.13;27.69
26487;BME280;14425;56.136;40.360;2022-08-01T08:57:34;99841.53;;;30.88;27.07
26487;BME280;14425;56.136;40.360;2022-08-01T09:00:00;99833.53;;;30.88;28.00
26487;BME280;14425;56.136;40.360;2022-08-01T09:02:26;99830.41;;;31.18;27.83
26487;BME280;14425;56.136;40.360;2022-08-01T09:04:51;99839.53;;;30.73;27.82
26487;BME280;14425;56.136;40.360;2022-08-01T09:07:17;99832.56;;;30.70;28.45
26487;BME280;14425;56.136;40.360;2022-08-01T09:09:43;99829.19;;;30.86;28.29
26487;BME280;14425;56.136;40.360;2022-08-01T09:12:08;99829.59;;;30.37;27.66
26487;BME280;14425;56.136;40.360;2022-08-01T09:14:34;99826.66;;;30.43;28.02
26487;BME280;14425;56.136;40.360;2022-08-01T09:17:10;99829.41;;;29.99;28.38
26487;BME280;14425;56.136;40.360;2022-08-01T09:19:47;99823.44;;;30.14;28.31
26487;BME280;14425;56.136;40.360;2022-08-01T09:22:14;99821.44;;;29.77;29.07
26487;BME280;14425;56.136;40.360;2022-08-01T09:24:58;99824.25;;;29.28;29.92
26487;BME280;14425;56.136;40.360;2022-08-01T09:27:24;99821.78;;;30.73;27.38
26487;BME280;14425;56.136;40.360;2022-08-01T09:29:51;99820.19;;;30.28;27.94
26487;BME280;14425;56.136;40.360;2022-08-01T09:32:17;99817.00;;;30.20;27.64
26487;BME280;14425;56.136;40.360;2022-08-01T09:34:43;99814.72;;;29.46;28.36
26487;BME280;14425;56.136;40.360;2022-08-01T09:37:11;99815.75;;;29.64;27.62
26487;BME280;14425;56.136;40.360;2022-08-01T09:39:37;99815.28;;;29.98;27.39
26487;BME280;14425;56.136;40.360;2022-08-01T09:42:18;99812.50;;;29.79;27.60
26487;BME280;14425;56.136;40.360;2022-08-01T09:44:44;99818.44;;;28.94;28.12
26487;BME280;14425;56.136;40.360;2022-08-01T09:47:11;99817.56;;;27.65;30.23
26487;BME280;14425;56.136;40.360;2022-08-01T09:49:37;99812.63;;;28.34;29.40
26487;BME280;14425;56.136;40.360;2022-08-01T09:52:10;99812.56;;;29.56;28.38
26487;BME280;14425;56.136;40.360;2022-08-01T09:54:36;99820.91;;;30.11;27.94
26487;BME280;14425;56.136;40.360;2022-08-01T09:57:15;99809.91;;;30.41;27.53
26487;BME280;14425;56.136;40.360;2022-08-01T09:59:42;99803.72;;;30.20;28.29
26487;BME280;14425;56.136;40.360;2022-08-01T10:02:09;99805.38;;;30.02;27.21
26487;BME280;14425;56.136;40.360;2022-08-01T10:04:36;99800.03;;;30.64;27.95
26487;BME280;14425;56.136;40.360;2022-08-01T10:07:05;99799.28;;;29.56;26.72
26487;BME280;14425;56.136;40.360;2022-08-01T10:09:33;99801.78;;;30.44;27.12
26487;BME280;14425;56.136;40.360;2022-08-01T10:11:59;99796.59;;;30.81;28.45
26487;BME280;14425;56.136;40.360;2022-08-01T10:14:26;99799.06;;;30.46;27.92
26487;BME280;14425;56.136;40.360;2022-08-01T10:16:52;99799.91;;;28.93;28.98
26487;BME280;14425;56.136;40.360;2022-08-01T10:19:18;99806.19;;;27.35;31.55
26487;BME280;14425;56.136;40.360;2022-08-01T10:21:46;99805.03;;;27.98;31.04
26487;BME280;14425;56.136;40.360;2022-08-01T10:24:15;99805.16;;;27.39;31.52
26487;BME280;14425;56.136;40.360;2022-08-01T10:26:41;99806.00;;;26.48;31.64
26487;BME280;14425;56.136;40.360;2022-08-01T10:29:08;99805.53;;;26.32;31.26
26487;BME280;14425;56.136;40.360;2022-08-01T10:31:34;99800.97;;;27.60;30.37
26487;BME280;14425;56.136;40.360;2022-08-01T10:34:00;99795.41;;;28.71;30.97
26487;BME280;14425;56.136;40.360;2022-08-01T10:39:16;99797.69;;;30.37;29.83
26487;BME280;14425;56.136;40.360;2022-08-01T10:41:44;99787.91;;;30.77;28.10
26487;BME280;14425;56.136;40.360;2022-08-01T10:44:10;99794.91;;;30.59;28.43
26487;BME280;14425;56.136;40.360;2022-08-01T10:46:40;99787.53;;;29.83;29.36
26487;BME280;14425;56.136;40.360;2022-08-01T10:49:11;99794.19;;;28.56;29.20
26487;BME280;14425;56.136;40.360;2022-08-01T10:51:38;99789.28;;;28.93;29.93
26487;BME280;14425;56.136;40.360;2022-08-01T10:54:08;99802.91;;;29.75;28.63
26487;BME280;14425;56.136;40.360;2022-08-01T10:56:44;99790.50;;;29.54;28.88
26487;BME280;14425;56.136;40.360;2022-08-01T10:59:14;99787.28;;;29.45;28.67
26487;BME280;14425;56.136;40.360;2022-08-01T11:01:39;99787.91;;;29.06;29.08
26487;BME280;14425;56.136;40.360;2022-08-01T11:04:09;99785.41;;;29.02;29.09
26487;BME280;14425;56.136;40.360;2022-08-01T11:14:23;99790.47;;;27.57;30.78
26487;BME280;14425;56.136;40.360;2022-08-01T11:16:49;99799.50;;;27.21;30.52
26487;BME280;14425;56.136;40.360;2022-08-01T11:19:14;99791.28;;;27.59;30.90
26487;BME280;14425;56.136;40.360;2022-08-01T11:27:21;99787.16;;;28.04;29.87
26487;BME280;14425;56.136;40.360;2022-08-01T11:35:18;99786.16;;;28.82;28.51
26487;BME280;14425;56.136;40.360;2022-08-01T11:37:46;99785.59;;;28.48;28.05
26487;BME280;14425;56.136;40.360;2022-08-01T11:40:26;99782.59;;;28.83;27.93
26487;BME280;14425;56.136;40.360;2022-08-01T11:45:52;99780.41;;;29.18;28.17
26487;BME280;14425;56.136;40.360;2022-08-01T11:48:26;99782.03;;;28.74;29.37
26487;BME280;14425;56.136;40.360;2022-08-01T11:50:53;99779.38;;;27.99;30.70
26487;BME280;14425;56.136;40.360;2022-08-01T11:53:22;99772.06;;;28.32;30.42
26487;BME280;14425;56.136;40.360;2022-08-01T11:55:52;99773.66;;;28.36;30.76
26487;BME280;14425;56.136;40.360;2022-08-01T11:58:24;99772.56;;;28.17;31.32
26487;BME280;14425;56.136;40.360;2022-08-01T12:00:51;99775.28;;;27.89;32.07
26487;BME280;14425;56.136;40.360;2022-08-01T12:03:22;99770.44;;;27.75;31.74
26487;BME280;14425;56.136;40.360;2022-08-01T12:05:48;99774.06;;;27.99;32.36
26487;BME280;14425;56.136;40.360;2022-08-01T12:08:13;99772.72;;;27.86;32.00
26487;BME280;14425;56.136;40.360;2022-08-01T12:10:49;99771.56;;;27.96;31.67
26487;BME280;14425;56.136;40.360;2022-08-01T12:13:18;99767.81;;;27.75;31.61
26487;BME280;14425;56.136;40.360;2022-08-01T12:15:45;99771.69;;;27.64;31.36
26487;BME280;14425;56.136;40.360;2022-08-01T12:18:11;99771.47;;;27.71;30.61
26487;BME280;14425;56.136;40.360;2022-08-01T12:20:38;99770.16;;;27.29;30.54
26487;BME280;14425;56.136;40.360;2022-08-01T12:23:05;99765.19;;;27.46;31.22
26487;BME280;14425;56.136;40.360;2022-08-01T12:25:34;99763.63;;;27.68;31.54
26487;BME280;14425;56.136;40.360;2022-08-01T12:28:03;99770.66;;;27.69;31.18
26487;BME280;14425;56.136;40.360;2022-08-01T12:30:32;99770.31;;;26.65;29.89
26487;BME280;14425;56.136;40.360;2022-08-01T12:33:04;99768.47;;;26.97;29.80
26487;BME280;14425;56.136;40.360;2022-08-01T12:35:31;99765.19;;;27.46;30.91
26487;BME280;14425;56.136;40.360;2022-08-01T12:37:57;99761.31;;;28.10;29.69
26487;BME280;14425;56.136;40.360;2022-08-01T12:40:28;99748.75;;;28.66;29.65
26487;BME280;14425;56.136;40.360;2022-08-01T12:42:54;99756.38;;;28.50;29.70
26487;BME280;14425;56.136;40.360;2022-08-01T12:45:25;99749.03;;;28.82;29.14
26487;BME280;14425;56.136;40.360;2022-08-01T12:47:51;99753.44;;;28.59;30.23
26487;BME280;14425;56.136;40.360;2022-08-01T12:50:22;99751.59;;;28.11;30.77
26487;BME280;14425;56.136;40.360;2022-08-01T12:52:48;99747.47;;;28.02;28.93
26487;BME280;14425;56.136;40.360;2022-08-01T12:55:24;99749.69;;;28.14;28.45
26487;BME280;14425;56.136;40.360;2022-08-01T12:58:09;99753.16;;;29.12;27.98
26487;BME280;14425;56.136;40.360;2022-08-01T13:00:35;99745.84;;;29.19;27.17
26487;BME280;14425;56.136;40.360;2022-08-01T13:03:08;99740.72;;;28.91;28.07
26487;BME280;14425;56.136;40.360;2022-08-01T13:08:09;99737.69;;;28.53;28.43
26487;BME280;14425;56.136;40.360;2022-08-01T13:10:35;99740.47;;;27.74;28.77
26487;BME280;14425;56.136;40.360;2022-08-01T13:13:00;99742.22;;;27.74;28.74
26487;BME280;14425;56.136;40.360;2022-08-01T13:15:27;99738.91;;;28.44;28.40
26487;BME280;14425;56.136;40.360;2022-08-01T13:17:53;99737.94;;;28.70;28.87
26487;BME280;14425;56.136;40.360;2022-08-01T13:20:26;99732.88;;;28.88;29.47
26487;BME280;14425;56.136;40.360;2022-08-01T13:22:53;99720.53;;;28.14;28.98
26487;BME280;14425;56.136;40.360;2022-08-01T13:25:18;99723.47;;;29.25;28.48